createdAt,value
2023-05-05T00:01:06.811Z,86.85
2023-05-05T00:03:09.480Z,86.65
2023-05-05T00:05:14.678Z,86.59
2023-05-05T00:07:19.652Z,88.53
2023-05-05T00:09:25.108Z,87.80
2023-05-05T00:11:30.057Z,88.84
2023-05-05T00:13:35.105Z,88.19
2023-05-05T00:15:40.480Z,88.19
2023-05-05T00:17:48.098Z,89.43
2023-05-05T00:19:52.987Z,89.77
2023-05-05T00:21:57.932Z,90.52
2023-05-05T00:24:02.949Z,90.92
2023-05-05T00:26:07.901Z,92.66
2023-05-05T00:28:14.306Z,93.74
2023-05-05T00:30:19.259Z,95.14
2023-05-05T00:32:24.188Z,98.44
2023-05-05T00:34:32.050Z,98.22
2023-05-05T00:36:38.236Z,97.50
2023-05-05T00:38:43.527Z,95.91
2023-05-05T00:40:48.412Z,94.75
2023-05-05T00:42:53.616Z,94.84
2023-05-05T00:44:58.867Z,95.30
2023-05-05T00:47:03.645Z,96.71
2023-05-05T00:49:12.487Z,96.33
2023-05-05T00:51:22.008Z,97.51
2023-05-05T00:53:29.668Z,98.33
2023-05-05T00:55:36.796Z,99.13
2023-05-05T00:57:41.864Z,98.77
2023-05-05T00:59:49.433Z,99.43
2023-05-05T01:01:54.444Z,99.38
2023-05-05T01:03:59.518Z,100.00
2023-05-05T01:06:17.344Z,99.84
2023-05-05T01:08:39.261Z,99.46
2023-05-05T01:10:47.979Z,99.30
2023-05-05T01:13:00.328Z,100.00
2023-05-05T01:15:18.236Z,100.00
2023-05-05T01:17:31.817Z,100.00
2023-05-05T01:19:59.600Z,100.00
2023-05-05T01:22:10.131Z,100.00
2023-05-05T01:24:56.136Z,100.00
2023-05-05T01:27:30.289Z,100.00
2023-05-05T01:29:46.335Z,100.00
2023-05-05T01:31:57.338Z,100.00
2023-05-05T01:34:07.020Z,100.00
2023-05-05T01:36:22.914Z,100.00
2023-05-05T01:38:35.420Z,100.00
2023-05-05T01:40:46.701Z,100.00
2023-05-05T01:42:53.490Z,100.00
2023-05-05T01:45:00.552Z,100.00
2023-05-05T01:47:09.572Z,100.00
2023-05-05T01:49:15.396Z,100.00
2023-05-05T01:51:22.278Z,100.00
2023-05-05T01:53:29.322Z,100.00
2023-05-05T01:55:36.573Z,100.00
2023-05-05T01:57:43.269Z,100.00
2023-05-05T01:59:48.168Z,100.00
2023-05-05T02:01:53.744Z,100.00
2023-05-05T02:04:02.510Z,100.00
2023-05-05T02:06:10.145Z,100.00
2023-05-05T02:08:15.797Z,100.00
2023-05-05T02:10:21.188Z,100.00
2023-05-05T02:12:26.373Z,100.00
2023-05-05T02:14:32.387Z,100.00
2023-05-05T02:16:41.459Z,100.00
2023-05-05T02:18:48.922Z,100.00
2023-05-05T02:20:56.761Z,100.00
2023-05-05T02:23:02.268Z,100.00
2023-05-05T02:25:08.433Z,100.00
2023-05-05T02:27:14.783Z,100.00
2023-05-05T02:29:22.232Z,100.00
2023-05-05T02:31:30.626Z,100.00
2023-05-05T02:33:36.868Z,100.00
2023-05-05T02:35:44.183Z,100.00
2023-05-05T02:38:02.933Z,100.00
2023-05-05T02:40:14.129Z,100.00
2023-05-05T02:42:22.731Z,100.00
2023-05-05T02:44:32.026Z,100.00
2023-05-05T02:46:37.907Z,100.00
2023-05-05T02:48:46.139Z,100.00
2023-05-05T02:50:51.299Z,100.00
2023-05-05T02:53:10.872Z,100.00
2023-05-05T02:55:16.746Z,100.00
2023-05-05T02:57:23.713Z,100.00
2023-05-05T02:59:51.878Z,100.00
2023-05-05T03:02:13.030Z,100.00
2023-05-05T03:04:23.697Z,100.00
2023-05-05T03:06:33.258Z,100.00
2023-05-05T03:08:52.957Z,100.00
2023-05-05T03:11:03.359Z,100.00
2023-05-05T03:13:12.368Z,100.00
2023-05-05T03:15:22.798Z,100.00
2023-05-05T03:17:31.042Z,99.82
2023-05-05T03:19:54.122Z,99.30
2023-05-05T03:21:59.651Z,99.93
2023-05-05T03:24:15.893Z,100.00
2023-05-05T03:26:23.363Z,100.00
2023-05-05T03:28:28.396Z,100.00
2023-05-05T03:30:36.158Z,100.00
2023-05-05T03:32:41.163Z,100.00
2023-05-05T03:34:46.170Z,100.00
2023-05-05T03:36:51.032Z,100.00
2023-05-05T03:38:56.004Z,100.00
2023-05-05T03:41:03.795Z,100.00
2023-05-05T03:43:09.868Z,100.00
2023-05-05T03:45:15.904Z,100.00
2023-05-05T03:47:20.667Z,100.00
2023-05-05T03:49:25.697Z,100.00
2023-05-05T03:51:31.825Z,100.00
2023-05-05T03:53:40.226Z,100.00
2023-05-05T03:55:46.173Z,100.00
2023-05-05T03:57:53.412Z,100.00
2023-05-05T03:59:58.397Z,100.00
2023-05-05T04:02:04.674Z,100.00
2023-05-05T04:04:09.830Z,100.00
2023-05-05T04:06:14.887Z,100.00
2023-05-05T04:08:19.735Z,100.00
2023-05-05T04:10:27.013Z,100.00
2023-05-05T04:12:32.602Z,100.00
2023-05-05T04:14:40.200Z,100.00
2023-05-05T04:16:45.832Z,100.00
2023-05-05T04:18:50.704Z,100.00
2023-05-05T04:20:55.724Z,100.00
2023-05-05T04:23:01.101Z,99.78
2023-05-05T04:25:06.091Z,99.63
2023-05-05T04:27:11.413Z,99.57
2023-05-05T04:29:17.213Z,97.41
2023-05-05T04:31:24.818Z,96.43
2023-05-05T04:33:29.772Z,95.55
2023-05-05T04:35:34.709Z,95.55
2023-05-05T04:37:41.900Z,95.43
2023-05-05T04:39:47.202Z,94.90
2023-05-05T04:41:52.541Z,95.14
2023-05-05T04:43:59.748Z,94.58
2023-05-05T04:46:05.208Z,94.47
2023-05-05T04:48:15.353Z,93.73
2023-05-05T04:50:20.597Z,92.84
2023-05-05T04:52:25.865Z,92.44
2023-05-05T04:54:30.763Z,92.69
2023-05-05T04:56:36.070Z,92.99
2023-05-05T04:58:41.036Z,91.99
2023-05-05T05:00:46.065Z,92.66
2023-05-05T05:02:51.002Z,93.03
2023-05-05T05:04:58.575Z,92.89
2023-05-05T05:07:04.316Z,92.80
2023-05-05T05:09:09.314Z,91.58
2023-05-05T05:11:14.300Z,90.99
2023-05-05T05:13:19.355Z,91.14
2023-05-05T05:15:24.298Z,91.96
2023-05-05T05:17:30.627Z,93.77
2023-05-05T05:19:36.628Z,94.15
2023-05-05T05:21:44.417Z,94.70
2023-05-05T05:23:49.287Z,94.04
2023-05-05T05:25:54.898Z,93.80
2023-05-05T05:28:09.604Z,92.93
2023-05-05T05:30:19.449Z,90.43
2023-05-05T05:32:24.547Z,87.14
2023-05-05T05:34:29.551Z,85.35
2023-05-05T05:36:35.290Z,85.13
2023-05-05T05:38:43.579Z,85.50
2023-05-05T05:40:48.426Z,86.11
2023-05-05T05:42:53.334Z,86.92
2023-05-05T05:44:58.882Z,87.89
2023-05-05T05:47:04.364Z,88.56
2023-05-05T05:49:09.365Z,88.25
2023-05-05T05:51:14.463Z,87.22
2023-05-05T05:53:19.941Z,84.94
2023-05-05T05:55:27.525Z,84.31
2023-05-05T05:57:32.729Z,83.91
2023-05-05T05:59:41.287Z,83.85
2023-05-05T06:01:46.466Z,84.08
2023-05-05T06:03:51.487Z,83.30
2023-05-05T06:05:56.361Z,83.46
2023-05-05T06:08:01.256Z,83.53
2023-05-05T06:10:25.760Z,82.31
2023-05-05T06:12:41.471Z,81.60
2023-05-05T06:14:46.710Z,81.96
2023-05-05T06:16:52.941Z,82.72
2023-05-05T06:19:00.345Z,82.87
2023-05-05T06:21:05.313Z,82.49
2023-05-05T06:23:13.180Z,82.70
2023-05-05T06:25:22.805Z,82.84
2023-05-05T06:27:28.758Z,83.35
2023-05-05T06:29:36.410Z,84.03
2023-05-05T06:31:41.336Z,85.09
2023-05-05T06:33:46.280Z,84.88
2023-05-05T06:35:51.482Z,85.35
2023-05-05T06:37:56.355Z,85.50
2023-05-05T06:40:01.423Z,85.15
2023-05-05T06:42:06.602Z,85.41
2023-05-05T06:44:11.593Z,85.56
2023-05-05T06:46:19.253Z,84.89
2023-05-05T06:48:24.682Z,84.70
2023-05-05T06:50:29.598Z,85.27
2023-05-05T06:52:36.986Z,85.26
2023-05-05T06:54:43.755Z,85.12
2023-05-05T06:56:48.648Z,85.18
2023-05-05T06:58:53.508Z,84.71
2023-05-05T07:00:58.410Z,85.16
2023-05-05T07:03:06.399Z,84.97
2023-05-05T07:05:11.984Z,84.41
2023-05-05T07:07:17.077Z,84.36
2023-05-05T07:09:22.016Z,85.28
2023-05-05T07:11:27.019Z,85.47
2023-05-05T07:13:31.954Z,85.41
2023-05-05T07:15:36.981Z,85.24
2023-05-05T07:17:41.898Z,84.55
2023-05-05T07:19:49.468Z,85.47
2023-05-05T07:21:55.100Z,84.96
2023-05-05T07:24:00.145Z,85.67
2023-05-05T07:26:05.075Z,85.12
2023-05-05T07:28:10.078Z,85.76
2023-05-05T07:30:18.387Z,86.48
2023-05-05T07:32:24.019Z,87.60
2023-05-05T07:34:28.683Z,87.56
2023-05-05T07:36:36.292Z,88.88
2023-05-05T07:38:41.194Z,90.50
2023-05-05T07:40:46.067Z,89.96
2023-05-05T07:42:51.162Z,88.69
2023-05-05T07:44:56.032Z,89.14
2023-05-05T07:47:03.955Z,90.52
2023-05-05T07:49:08.941Z,90.51
2023-05-05T07:51:13.938Z,89.55
2023-05-05T07:53:21.390Z,88.83
2023-05-05T07:55:26.262Z,88.15
2023-05-05T07:57:31.395Z,88.71
2023-05-05T07:59:36.261Z,92.44
2023-05-05T08:01:41.262Z,92.11
2023-05-05T08:03:46.064Z,92.13
2023-05-05T08:05:51.798Z,93.56
2023-05-05T08:07:56.925Z,93.47
2023-05-05T08:10:04.649Z,92.76
2023-05-05T08:12:10.235Z,92.40
2023-05-05T08:14:15.375Z,93.73
2023-05-05T08:16:20.118Z,94.30
2023-05-05T08:18:25.289Z,94.45
2023-05-05T08:20:31.280Z,93.69
2023-05-05T08:22:36.275Z,94.16
2023-05-05T08:24:41.028Z,93.66
2023-05-05T08:26:48.477Z,93.52
2023-05-05T08:28:55.443Z,93.46
2023-05-05T08:31:00.338Z,93.72
2023-05-05T08:33:05.356Z,94.00
2023-05-05T08:35:11.090Z,95.41
2023-05-05T08:37:19.112Z,95.28
2023-05-05T08:39:24.065Z,95.15
2023-05-05T08:41:29.139Z,95.36
2023-05-05T08:43:36.726Z,96.02
2023-05-05T08:45:43.839Z,96.42
2023-05-05T08:47:48.908Z,97.93
2023-05-05T08:49:56.449Z,98.01
2023-05-05T08:52:05.883Z,99.06
2023-05-05T08:54:15.415Z,98.63
2023-05-05T08:56:22.806Z,99.00
2023-05-05T08:58:29.027Z,98.77
2023-05-05T09:00:36.851Z,97.81
2023-05-05T09:02:43.486Z,97.77
2023-05-05T09:04:48.573Z,97.99
2023-05-05T09:06:53.587Z,98.29
2023-05-05T09:09:01.057Z,98.24
2023-05-05T09:11:06.730Z,99.54
2023-05-05T09:13:12.033Z,98.69
2023-05-05T09:15:17.566Z,100.00
2023-05-05T09:17:29.679Z,100.00
2023-05-05T09:19:34.639Z,99.04
2023-05-05T09:21:49.276Z,97.80
2023-05-05T09:24:11.069Z,97.46
2023-05-05T09:26:15.918Z,97.44
2023-05-05T09:28:21.313Z,96.73
2023-05-05T09:30:28.093Z,96.82
2023-05-05T09:32:46.449Z,96.35
2023-05-05T09:35:00.823Z,95.59
2023-05-05T09:37:06.885Z,95.67
2023-05-05T09:39:11.956Z,95.58
2023-05-05T09:41:16.584Z,95.63
2023-05-05T09:43:22.780Z,95.66
2023-05-05T09:45:29.429Z,95.46
2023-05-05T09:47:40.906Z,94.63
2023-05-05T09:49:45.868Z,94.57
2023-05-05T09:51:51.802Z,94.67
2023-05-05T09:53:56.992Z,94.67
2023-05-05T09:56:03.075Z,94.77
2023-05-05T09:58:21.469Z,95.47
2023-05-05T10:00:41.195Z,96.54
2023-05-05T10:02:49.001Z,96.59
2023-05-05T10:05:07.128Z,96.14
2023-05-05T10:07:25.823Z,95.71
2023-05-05T10:09:31.892Z,95.52
2023-05-05T10:11:37.657Z,95.79
2023-05-05T10:13:44.489Z,94.83
2023-05-05T10:15:51.741Z,95.24
2023-05-05T10:18:08.183Z,94.80
2023-05-05T10:20:16.057Z,95.32
2023-05-05T10:22:25.469Z,94.56
2023-05-05T10:24:40.572Z,94.83
2023-05-05T10:26:49.253Z,94.78
2023-05-05T10:28:57.663Z,94.09
2023-05-05T10:31:13.132Z,95.33
2023-05-05T10:33:39.474Z,95.49
2023-05-05T10:35:46.955Z,95.81
2023-05-05T10:37:53.034Z,94.77
2023-05-05T10:39:58.648Z,93.96
2023-05-05T10:42:04.937Z,94.70
2023-05-05T10:44:10.943Z,96.14
2023-05-05T10:46:16.312Z,96.15
2023-05-05T10:48:25.734Z,95.24
2023-05-05T10:50:41.438Z,95.36
2023-05-05T10:52:56.302Z,94.15
2023-05-05T10:55:10.781Z,93.67
2023-05-05T10:57:19.408Z,92.48
2023-05-05T10:59:42.672Z,92.50
2023-05-05T11:01:47.618Z,92.33
2023-05-05T11:03:52.386Z,91.53
2023-05-05T11:06:15.629Z,92.76
2023-05-05T11:08:29.744Z,94.23
2023-05-05T11:10:47.411Z,93.63
2023-05-05T11:13:23.826Z,94.99
2023-05-05T11:15:40.888Z,95.50
2023-05-05T11:17:49.940Z,94.14
2023-05-05T11:19:55.184Z,94.92
2023-05-05T11:22:05.874Z,93.85
2023-05-05T11:24:32.009Z,93.55
2023-05-05T11:26:52.965Z,92.15
2023-05-05T11:29:03.360Z,91.99
2023-05-05T11:31:26.727Z,92.02
2023-05-05T11:33:32.722Z,91.42
2023-05-05T11:35:58.864Z,91.86
2023-05-05T11:38:10.180Z,91.39
2023-05-05T11:40:24.478Z,92.28
2023-05-05T11:42:30.451Z,92.97
2023-05-05T11:44:37.012Z,93.38
2023-05-05T11:46:43.577Z,93.55
2023-05-05T11:48:48.865Z,92.80
2023-05-05T11:50:53.910Z,93.20
2023-05-05T11:52:58.958Z,95.00
2023-05-05T11:55:07.356Z,95.90
2023-05-05T11:57:12.308Z,96.28
2023-05-05T11:59:17.151Z,96.69
2023-05-05T12:01:22.075Z,98.59
2023-05-05T12:03:28.817Z,100.00
2023-05-05T12:05:36.691Z,100.00
2023-05-05T12:07:44.756Z,99.13
2023-05-05T12:09:52.124Z,99.84
2023-05-05T12:12:02.916Z,100.00
2023-05-05T12:14:12.287Z,100.00
2023-05-05T12:16:20.142Z,99.56
2023-05-05T12:18:25.060Z,99.59
2023-05-05T12:20:32.626Z,100.00
2023-05-05T12:22:37.642Z,99.82
2023-05-05T12:24:42.996Z,99.41
2023-05-05T12:26:47.885Z,100.00
2023-05-05T12:28:55.621Z,99.97
2023-05-05T12:31:00.800Z,99.53
2023-05-05T12:33:06.844Z,100.00
2023-05-05T12:35:13.380Z,100.00
2023-05-05T12:37:19.331Z,100.00
2023-05-05T12:39:24.386Z,100.00
2023-05-05T12:41:28.964Z,100.00
2023-05-05T12:43:34.984Z,100.00
2023-05-05T12:45:45.186Z,100.00
2023-05-05T12:47:50.168Z,100.00
2023-05-05T12:49:55.182Z,100.00
2023-05-05T12:52:00.663Z,100.00
2023-05-05T12:54:07.449Z,100.00
2023-05-05T12:56:33.570Z,100.00
2023-05-05T12:58:51.227Z,100.00
2023-05-05T13:01:13.595Z,100.00
2023-05-05T13:03:22.227Z,100.00
2023-05-05T13:05:34.546Z,100.00
2023-05-05T13:07:40.729Z,100.00
2023-05-05T13:09:46.191Z,100.00
2023-05-05T13:11:51.242Z,100.00
2023-05-05T13:13:56.620Z,100.00
2023-05-05T13:16:01.507Z,100.00
2023-05-05T13:18:08.873Z,100.00
2023-05-05T13:20:14.570Z,100.00
2023-05-05T13:22:20.071Z,100.00
2023-05-05T13:24:37.955Z,100.00
2023-05-05T13:26:47.597Z,100.00
2023-05-05T13:28:52.258Z,100.00
2023-05-05T13:30:58.854Z,97.97
2023-05-05T13:33:05.107Z,98.19
2023-05-05T13:35:15.529Z,97.20
2023-05-05T13:37:21.454Z,99.09
2023-05-05T13:39:26.360Z,99.51
2023-05-05T13:41:31.366Z,100.00
2023-05-05T13:43:36.053Z,98.24
2023-05-05T13:45:41.976Z,98.86
2023-05-05T13:47:47.131Z,98.27
2023-05-05T13:49:51.916Z,99.34
2023-05-05T13:51:59.675Z,100.00
2023-05-05T13:54:04.855Z,100.00
2023-05-05T13:56:11.113Z,100.00
2023-05-05T13:58:17.824Z,100.00
2023-05-05T14:00:23.404Z,100.00
2023-05-05T14:02:28.309Z,100.00
2023-05-05T14:04:33.298Z,100.00
2023-05-05T14:06:38.595Z,100.00
2023-05-05T14:08:46.475Z,100.00
2023-05-05T14:10:52.261Z,100.00
2023-05-05T14:12:57.400Z,100.00
2023-05-05T14:15:02.122Z,100.00
2023-05-05T14:17:07.119Z,100.00
2023-05-05T14:19:12.021Z,100.00
2023-05-05T14:21:16.955Z,100.00
2023-05-05T14:23:21.874Z,100.00
2023-05-05T14:25:29.224Z,100.00
2023-05-05T14:27:34.129Z,100.00
2023-05-05T14:29:39.008Z,100.00
2023-05-05T14:31:43.959Z,100.00
2023-05-05T14:33:48.922Z,100.00
2023-05-05T14:35:53.900Z,100.00
2023-05-05T14:37:58.813Z,100.00
2023-05-05T14:40:05.623Z,100.00
2023-05-05T14:42:13.438Z,100.00
2023-05-05T14:44:19.166Z,100.00
2023-05-05T14:46:24.243Z,100.00
2023-05-05T14:48:29.372Z,100.00
2023-05-05T14:50:34.052Z,100.00
2023-05-05T14:52:40.500Z,100.00
2023-05-05T14:54:45.433Z,100.00
2023-05-05T14:56:50.355Z,100.00
2023-05-05T14:58:57.840Z,100.00
2023-05-05T15:01:03.296Z,100.00
2023-05-05T15:03:08.337Z,100.00
2023-05-05T15:05:13.664Z,100.00
2023-05-05T15:07:18.586Z,100.00
2023-05-05T15:09:23.468Z,100.00
2023-05-05T15:11:28.457Z,100.00
2023-05-05T15:13:33.198Z,100.00
2023-05-05T15:15:41.357Z,100.00
2023-05-05T15:17:46.324Z,100.00
2023-05-05T15:19:51.338Z,100.00
2023-05-05T15:21:56.219Z,100.00
2023-05-05T15:24:01.093Z,100.00
2023-05-05T15:26:06.087Z,100.00
2023-05-05T15:28:11.156Z,100.00
2023-05-05T15:30:16.501Z,100.00
2023-05-05T15:32:24.480Z,100.00
2023-05-05T15:34:29.373Z,100.00
2023-05-05T15:36:34.249Z,100.00
2023-05-05T15:38:43.461Z,100.00
2023-05-05T15:40:50.164Z,100.00
2023-05-05T15:42:55.347Z,100.00
2023-05-05T15:45:02.108Z,100.00
2023-05-05T15:47:07.378Z,100.00
2023-05-05T15:49:15.310Z,100.00
2023-05-05T15:51:20.300Z,100.00
2023-05-05T15:53:26.917Z,100.00
2023-05-05T15:55:31.997Z,100.00
2023-05-05T15:57:39.702Z,100.00
2023-05-05T15:59:46.768Z,100.00
2023-05-05T16:01:51.639Z,100.00
2023-05-05T16:03:58.042Z,100.00
2023-05-05T16:06:05.854Z,100.00
2023-05-05T16:08:11.101Z,100.00
2023-05-05T16:10:17.734Z,100.00
2023-05-05T16:12:23.370Z,100.00
2023-05-05T16:14:28.215Z,100.00
2023-05-05T16:16:33.225Z,100.00
2023-05-05T16:18:39.472Z,100.00
2023-05-05T16:20:44.499Z,100.00
2023-05-05T16:22:51.738Z,100.00
2023-05-05T16:24:56.614Z,100.00
2023-05-05T16:27:01.520Z,100.00
2023-05-05T16:29:06.379Z,100.00
2023-05-05T16:31:11.985Z,100.00
2023-05-05T16:33:26.554Z,100.00
2023-05-05T16:35:40.563Z,100.00
2023-05-05T16:37:45.924Z,100.00
2023-05-05T16:39:53.398Z,100.00
2023-05-05T16:41:58.470Z,100.00
2023-05-05T16:44:03.384Z,100.00
2023-05-05T16:46:09.374Z,100.00
2023-05-05T16:48:14.939Z,100.00
2023-05-05T16:50:20.221Z,100.00
2023-05-05T16:52:25.191Z,100.00
2023-05-05T16:54:29.897Z,100.00
2023-05-05T16:56:37.426Z,100.00
2023-05-05T16:58:44.738Z,100.00
2023-05-05T17:00:49.616Z,100.00
2023-05-05T17:02:54.528Z,100.00
2023-05-05T17:04:59.437Z,100.00
2023-05-05T17:07:04.230Z,100.00
2023-05-05T17:09:09.125Z,100.00
2023-05-05T17:11:14.228Z,100.00
2023-05-05T17:13:23.209Z,100.00
2023-05-05T17:15:28.169Z,100.00
2023-05-05T17:17:33.051Z,100.00
2023-05-05T17:19:38.014Z,100.00
2023-05-05T17:21:43.084Z,100.00
2023-05-05T17:23:47.957Z,100.00
2023-05-05T17:25:52.960Z,100.00
2023-05-05T17:27:58.113Z,100.00
2023-05-05T17:30:05.664Z,100.00
2023-05-05T17:32:10.878Z,100.00
2023-05-05T17:34:15.895Z,100.00
2023-05-05T17:36:20.612Z,100.00
2023-05-05T17:38:25.479Z,100.00
2023-05-05T17:40:30.571Z,100.00
2023-05-05T17:42:35.774Z,100.00
2023-05-05T17:44:40.655Z,100.00
2023-05-05T17:46:48.144Z,100.00
2023-05-05T17:48:53.215Z,100.00
2023-05-05T17:50:57.902Z,100.00
2023-05-05T17:53:02.791Z,100.00
2023-05-05T17:55:08.841Z,100.00
2023-05-05T17:57:13.995Z,100.00
2023-05-05T17:59:18.945Z,100.00
2023-05-05T18:01:24.321Z,100.00
2023-05-05T18:03:32.094Z,100.00
2023-05-05T18:05:37.124Z,100.00
2023-05-05T18:07:42.028Z,100.00
2023-05-05T18:09:46.809Z,100.00
2023-05-05T18:11:54.112Z,100.00
2023-05-05T18:13:59.000Z,100.00
2023-05-05T18:16:03.858Z,100.00
2023-05-05T18:18:08.886Z,100.00
2023-05-05T18:20:17.988Z,100.00
2023-05-05T18:22:22.994Z,100.00
2023-05-05T18:24:28.324Z,100.00
2023-05-05T18:26:33.167Z,100.00
2023-05-05T18:28:39.745Z,100.00
2023-05-05T18:30:44.725Z,100.00
2023-05-05T18:32:49.878Z,100.00
2023-05-05T18:34:54.897Z,100.00
2023-05-05T18:37:02.539Z,100.00
2023-05-05T18:39:07.491Z,100.00
2023-05-05T18:41:12.322Z,100.00
2023-05-05T18:43:17.702Z,100.00
2023-05-05T18:45:22.842Z,100.00
2023-05-05T18:47:28.761Z,100.00
2023-05-05T18:49:33.825Z,100.00
2023-05-05T18:51:38.540Z,100.00
2023-05-05T18:53:46.534Z,100.00
2023-05-05T18:55:51.610Z,100.00
2023-05-05T18:57:56.709Z,100.00
2023-05-05T19:00:01.729Z,100.00
2023-05-05T19:02:06.752Z,100.00
2023-05-05T19:04:26.848Z,100.00
2023-05-05T19:06:35.970Z,100.00
2023-05-05T19:08:40.901Z,100.00
2023-05-05T19:10:48.670Z,100.00
2023-05-05T19:12:53.796Z,100.00
2023-05-05T19:14:58.708Z,100.00
2023-05-05T19:17:03.875Z,100.00
2023-05-05T19:19:10.991Z,100.00
2023-05-05T19:21:15.989Z,100.00
2023-05-05T19:23:20.920Z,100.00
2023-05-05T19:25:25.869Z,100.00
2023-05-05T19:27:34.060Z,100.00
2023-05-05T19:29:38.977Z,100.00
2023-05-05T19:31:43.917Z,100.00
2023-05-05T19:33:48.995Z,100.00
2023-05-05T19:35:53.919Z,100.00
2023-05-05T19:37:59.082Z,100.00
2023-05-05T19:40:04.201Z,100.00
2023-05-05T19:42:09.807Z,100.00
2023-05-05T19:44:17.443Z,100.00
2023-05-05T19:46:22.748Z,100.00
2023-05-05T19:48:27.793Z,100.00
2023-05-05T19:50:32.482Z,100.00
2023-05-05T19:52:38.501Z,100.00
2023-05-05T19:54:43.622Z,100.00
2023-05-05T19:56:48.259Z,100.00
2023-05-05T19:58:57.776Z,100.00
2023-05-05T20:01:05.291Z,100.00
2023-05-05T20:03:10.276Z,100.00
2023-05-05T20:05:17.473Z,100.00
2023-05-05T20:07:22.845Z,100.00
2023-05-05T20:09:27.699Z,100.00
2023-05-05T20:11:33.061Z,100.00
2023-05-05T20:13:38.452Z,100.00
2023-05-05T20:15:43.516Z,100.00
2023-05-05T20:17:51.326Z,100.00
2023-05-05T20:19:57.792Z,100.00
2023-05-05T20:22:02.984Z,100.00
2023-05-05T20:24:08.106Z,100.00
2023-05-05T20:26:13.699Z,100.00
2023-05-05T20:28:18.623Z,100.00
2023-05-05T20:30:23.503Z,100.00
2023-05-05T20:32:28.531Z,100.00
2023-05-05T20:34:35.990Z,100.00
2023-05-05T20:36:41.030Z,100.00
2023-05-05T20:38:46.084Z,100.00
2023-05-05T20:40:51.042Z,100.00
2023-05-05T20:42:55.880Z,100.00
2023-05-05T20:45:00.925Z,100.00
2023-05-05T20:47:06.053Z,100.00
2023-05-05T20:49:11.015Z,100.00
2023-05-05T20:51:18.575Z,100.00
2023-05-05T20:53:28.083Z,100.00
2023-05-05T20:55:32.935Z,100.00
2023-05-05T20:57:37.966Z,100.00
2023-05-05T20:59:42.883Z,100.00
2023-05-05T21:01:47.796Z,100.00
2023-05-05T21:03:53.136Z,100.00
2023-05-05T21:05:57.999Z,100.00
2023-05-05T21:08:05.549Z,100.00
2023-05-05T21:10:12.043Z,100.00
2023-05-05T21:12:17.103Z,100.00
2023-05-05T21:14:22.201Z,100.00
2023-05-05T21:16:27.277Z,100.00
2023-05-05T21:18:31.992Z,100.00
2023-05-05T21:20:36.920Z,100.00
2023-05-05T21:22:41.795Z,100.00
2023-05-05T21:24:49.364Z,100.00
2023-05-05T21:26:54.884Z,100.00
2023-05-05T21:28:59.756Z,100.00
2023-05-05T21:31:20.611Z,100.00
2023-05-05T21:33:27.513Z,100.00
2023-05-05T21:35:35.154Z,100.00
2023-05-05T21:37:40.703Z,100.00
2023-05-05T21:39:45.594Z,100.00
2023-05-05T21:41:53.247Z,100.00
2023-05-05T21:43:58.160Z,100.00
2023-05-05T21:46:03.691Z,100.00
2023-05-05T21:48:09.271Z,100.00
2023-05-05T21:50:14.857Z,100.00
2023-05-05T21:52:19.837Z,100.00
2023-05-05T21:54:24.752Z,100.00
2023-05-05T21:56:29.685Z,100.00
2023-05-05T21:58:37.612Z,100.00
2023-05-05T22:00:43.827Z,100.00
2023-05-05T22:02:48.820Z,100.00
2023-05-05T22:04:53.731Z,100.00
2023-05-05T22:06:58.681Z,100.00
2023-05-05T22:09:03.561Z,100.00
2023-05-05T22:11:08.621Z,100.00
2023-05-05T22:13:14.800Z,100.00
2023-05-05T22:15:25.400Z,100.00
2023-05-05T22:17:32.447Z,100.00
2023-05-05T22:19:37.370Z,100.00
2023-05-05T22:21:45.344Z,100.00
2023-05-05T22:23:50.267Z,100.00
2023-05-05T22:25:55.238Z,100.00
2023-05-05T22:28:00.195Z,100.00
2023-05-05T22:30:05.113Z,100.00
2023-05-05T22:32:12.756Z,100.00
2023-05-05T22:34:18.842Z,100.00
2023-05-05T22:36:23.683Z,100.00
2023-05-05T22:38:28.597Z,100.00
2023-05-05T22:40:33.602Z,100.00
2023-05-05T22:42:38.614Z,100.00
2023-05-05T22:44:43.344Z,100.00
2023-05-05T22:46:48.292Z,100.00
2023-05-05T22:48:55.757Z,100.00
2023-05-05T22:51:00.792Z,100.00
2023-05-05T22:53:05.680Z,100.00
2023-05-05T22:55:12.939Z,100.00
2023-05-05T22:57:17.916Z,100.00
2023-05-05T22:59:22.828Z,100.00
2023-05-05T23:01:28.206Z,100.00
2023-05-05T23:03:33.188Z,100.00
2023-05-05T23:05:40.690Z,100.00
2023-05-05T23:07:45.717Z,100.00
2023-05-05T23:09:50.908Z,100.00
2023-05-05T23:11:55.598Z,100.00
2023-05-05T23:14:00.513Z,100.00
2023-05-05T23:16:05.637Z,100.00
2023-05-05T23:18:10.520Z,100.00
2023-05-05T23:20:15.618Z,100.00
2023-05-05T23:22:22.907Z,100.00
2023-05-05T23:24:27.786Z,100.00
2023-05-05T23:26:32.680Z,100.00
2023-05-05T23:28:37.598Z,100.00
2023-05-05T23:30:45.194Z,100.00
2023-05-05T23:32:50.153Z,100.00
2023-05-05T23:34:54.881Z,100.00
2023-05-05T23:36:59.739Z,100.00
2023-05-05T23:39:07.540Z,100.00
2023-05-05T23:41:12.439Z,100.00
2023-05-05T23:43:17.264Z,100.00
2023-05-05T23:45:22.115Z,100.00
2023-05-05T23:47:27.153Z,100.00
2023-05-05T23:49:32.094Z,100.00
2023-05-05T23:51:37.200Z,100.00
2023-05-05T23:53:42.353Z,100.00
2023-05-05T23:55:49.596Z,100.00
2023-05-05T23:57:54.525Z,100.00
2023-05-05T23:59:59.394Z,100.00
